createdAt,value
2019-04-07T00:02:20.707Z,49.60
2019-04-07T00:05:11.896Z,49.40
2019-04-07T00:07:53.093Z,49.50
2019-04-07T00:10:40.185Z,49.60
2019-04-07T00:13:25.892Z,49.60
2019-04-07T00:16:11.223Z,49.50
2019-04-07T00:18:55.888Z,49.60
2019-04-07T00:21:40.971Z,49.70
2019-04-07T00:24:25.705Z,49.40
2019-04-07T00:27:10.533Z,49.50
2019-04-07T00:29:55.665Z,49.60
2019-04-07T00:32:41.375Z,50.30
2019-04-07T00:35:31.218Z,49.70
2019-04-07T00:38:13.921Z,49.60
2019-04-07T00:40:59.221Z,49.70
2019-04-07T00:43:44.657Z,49.50
2019-04-07T00:46:29.568Z,49.50
2019-04-07T00:49:15.062Z,49.40
2019-04-07T00:52:01.416Z,49.60
2019-04-07T00:54:46.968Z,49.60
2019-04-07T00:57:32.076Z,49.70
2019-04-07T01:00:18.171Z,49.80
2019-04-07T01:03:04.075Z,49.80
2019-04-07T01:05:49.931Z,49.70
2019-04-07T01:08:34.768Z,49.60
2019-04-07T01:11:20.143Z,49.70
2019-04-07T01:14:05.968Z,49.80
2019-04-07T01:16:52.882Z,49.80
2019-04-07T01:19:38.307Z,49.80
2019-04-07T01:22:23.432Z,49.50
2019-04-07T01:25:08.929Z,49.70
2019-04-07T01:27:54.445Z,49.70
2019-04-07T01:30:41.445Z,49.60
2019-04-07T01:33:26.731Z,50.60
2019-04-07T01:36:11.635Z,49.60
2019-04-07T01:38:56.530Z,49.70
2019-04-07T01:41:58.865Z,49.70
2019-04-07T01:45:02.764Z,49.70
2019-04-07T01:48:01.686Z,49.80
2019-04-07T01:51:05.651Z,49.90
2019-04-07T01:54:05.360Z,50.00
2019-04-07T01:57:09.290Z,49.70
2019-04-07T02:00:02.983Z,49.80
2019-04-07T02:02:56.946Z,49.60
2019-04-07T02:05:59.154Z,49.70
2019-04-07T02:08:48.028Z,49.80
2019-04-07T02:11:45.154Z,49.90
2019-04-07T02:14:32.463Z,49.80
2019-04-07T02:17:22.322Z,50.00
2019-04-07T02:20:14.774Z,49.90
2019-04-07T02:23:09.556Z,50.00
2019-04-07T02:26:00.926Z,50.00
2019-04-07T02:29:07.998Z,49.90
2019-04-07T02:32:06.114Z,50.00
2019-04-07T02:34:53.441Z,49.80
2019-04-07T02:37:46.761Z,50.00
2019-04-07T02:40:51.363Z,49.90
2019-04-07T02:43:39.022Z,49.70
2019-04-07T02:46:27.011Z,49.80
2019-04-07T02:49:33.822Z,49.70
2019-04-07T02:52:25.030Z,49.70
2019-04-07T02:55:29.902Z,49.80
2019-04-07T02:58:32.667Z,49.80
2019-04-07T03:01:26.482Z,49.60
2019-04-07T03:04:14.272Z,49.80
2019-04-07T03:07:02.565Z,49.50
2019-04-07T03:09:50.429Z,49.80
2019-04-07T03:12:41.412Z,49.80
2019-04-07T03:15:28.274Z,49.30
2019-04-07T03:18:26.593Z,49.80
2019-04-07T03:21:19.632Z,49.70
2019-04-07T03:24:09.421Z,49.50
2019-04-07T03:26:56.587Z,49.70
2019-04-07T03:29:53.934Z,49.60
2019-04-07T03:32:49.314Z,49.70
2019-04-07T03:35:42.326Z,49.70
2019-04-07T03:38:28.968Z,49.60
2019-04-07T03:41:16.245Z,49.60
2019-04-07T03:44:03.532Z,49.60
2019-04-07T03:46:59.870Z,49.60
2019-04-07T03:49:47.758Z,49.60
2019-04-07T03:52:37.602Z,49.80
2019-04-07T03:55:28.249Z,49.70
2019-04-07T03:58:16.238Z,49.60
2019-04-07T04:01:08.315Z,49.60
2019-04-07T04:04:02.172Z,49.60
2019-04-07T04:07:20.265Z,49.60
2019-04-07T04:10:01.120Z,49.70
2019-04-07T04:12:49.919Z,49.70
2019-04-07T04:15:38.200Z,49.70
2019-04-07T04:18:23.891Z,49.30
2019-04-07T04:21:09.151Z,48.90
2019-04-07T04:23:55.046Z,49.60
2019-04-07T04:26:40.026Z,49.60
2019-04-07T04:29:25.231Z,49.60
2019-04-07T04:32:10.628Z,49.70
2019-04-07T04:34:56.245Z,49.60
2019-04-07T04:37:48.174Z,49.70
2019-04-07T04:40:30.267Z,49.60
2019-04-07T04:43:15.674Z,49.60
2019-04-07T04:46:01.321Z,49.40
2019-04-07T04:48:47.295Z,49.50
2019-04-07T04:51:36.949Z,49.40
2019-04-07T04:54:19.658Z,49.50
2019-04-07T04:57:07.860Z,49.40
2019-04-07T04:59:52.632Z,49.40
2019-04-07T05:02:38.308Z,49.50
2019-04-07T05:05:24.378Z,49.50
2019-04-07T05:08:09.518Z,49.60
2019-04-07T05:10:54.912Z,49.70
2019-04-07T05:13:41.242Z,49.70
2019-04-07T05:16:27.578Z,49.80
2019-04-07T05:19:13.440Z,50.00
2019-04-07T05:21:59.866Z,50.00
2019-04-07T05:24:45.510Z,50.00
2019-04-07T05:27:30.405Z,50.00
2019-04-07T05:30:15.771Z,50.10
2019-04-07T05:33:00.951Z,50.10
2019-04-07T05:35:45.947Z,50.10
2019-04-07T05:38:31.159Z,50.20
2019-04-07T05:41:16.410Z,50.30
2019-04-07T05:44:02.547Z,50.30
2019-04-07T05:46:49.609Z,50.30
2019-04-07T05:49:34.581Z,50.30
2019-04-07T05:52:19.544Z,50.30
2019-04-07T05:55:04.532Z,50.50
2019-04-07T05:57:49.963Z,50.50
2019-04-07T06:00:35.187Z,50.40
2019-04-07T06:03:20.458Z,50.50
2019-04-07T06:06:05.854Z,50.60
2019-04-07T06:08:50.743Z,50.70
2019-04-07T06:11:36.248Z,50.80
2019-04-07T06:14:21.420Z,50.80
2019-04-07T06:17:07.324Z,51.10
2019-04-07T06:19:53.306Z,51.20
2019-04-07T06:22:38.811Z,51.30
2019-04-07T06:25:24.998Z,51.30
2019-04-07T06:28:10.788Z,51.60
2019-04-07T06:30:59.193Z,51.40
2019-04-07T06:33:45.824Z,51.60
2019-04-07T06:36:32.852Z,51.50
2019-04-07T06:39:19.752Z,51.50
2019-04-07T06:42:05.818Z,51.40
2019-04-07T06:44:52.173Z,51.40
2019-04-07T06:47:40.298Z,51.80
2019-04-07T06:50:43.912Z,52.00
2019-04-07T06:53:36.937Z,52.10
2019-04-07T06:56:24.311Z,52.30
2019-04-07T06:59:15.563Z,52.30
2019-04-07T07:02:05.527Z,52.30
2019-04-07T07:05:11.211Z,52.20
2019-04-07T07:08:10.170Z,52.30
2019-04-07T07:11:05.819Z,52.50
2019-04-07T07:14:09.599Z,52.60
2019-04-07T07:17:02.990Z,53.40
2019-04-07T07:19:57.465Z,54.10
2019-04-07T07:22:49.477Z,54.40
2019-04-07T07:25:34.924Z,54.60
2019-04-07T07:28:21.111Z,54.70
2019-04-07T07:31:06.251Z,54.60
2019-04-07T07:33:51.494Z,54.30
2019-04-07T07:36:37.052Z,53.70
2019-04-07T07:39:23.155Z,53.60
2019-04-07T07:42:10.619Z,53.30
2019-04-07T07:44:56.032Z,53.00
2019-04-07T07:47:41.595Z,52.90
2019-04-07T07:50:28.356Z,52.80
2019-04-07T07:53:13.556Z,52.70
2019-04-07T07:55:58.551Z,52.40
2019-04-07T07:58:43.951Z,52.30
2019-04-07T08:01:29.056Z,52.20
2019-04-07T08:04:15.172Z,52.00
2019-04-07T08:07:02.357Z,51.90
2019-04-07T08:09:48.036Z,51.60
2019-04-07T08:12:34.956Z,51.60
2019-04-07T08:15:25.508Z,51.30
2019-04-07T08:18:08.740Z,51.10
2019-04-07T08:20:54.409Z,50.90
2019-04-07T08:23:43.071Z,50.70
2019-04-07T08:26:26.366Z,51.00
2019-04-07T08:29:13.016Z,50.20
2019-04-07T08:31:59.148Z,50.20
2019-04-07T08:34:44.913Z,50.00
2019-04-07T08:37:30.787Z,50.00
2019-04-07T08:40:16.364Z,49.80
2019-04-07T08:43:01.419Z,49.60
2019-04-07T08:45:47.106Z,49.30
2019-04-07T08:48:32.284Z,49.20
2019-04-07T08:51:17.518Z,49.00
2019-04-07T08:54:04.568Z,48.90
2019-04-07T08:56:50.278Z,48.70
2019-04-07T08:59:35.444Z,48.60
2019-04-07T09:02:20.171Z,48.50
2019-04-07T09:05:09.120Z,48.40
2019-04-07T09:07:55.840Z,48.30
2019-04-07T09:10:49.166Z,48.20
2019-04-07T09:13:34.099Z,48.10
2019-04-07T09:16:25.063Z,47.90
2019-04-07T09:19:25.218Z,47.90
2019-04-07T09:22:12.786Z,47.70
2019-04-07T09:25:03.437Z,47.60
2019-04-07T09:27:52.264Z,47.80
2019-04-07T09:30:56.342Z,47.40
2019-04-07T09:33:57.214Z,47.30
2019-04-07T09:36:59.185Z,47.20
2019-04-07T09:40:01.054Z,47.10
2019-04-07T09:42:47.120Z,46.90
2019-04-07T09:45:50.696Z,46.80
2019-04-07T09:48:53.060Z,46.80
2019-04-07T09:51:46.191Z,46.60
2019-04-07T09:54:53.831Z,46.50
2019-04-07T09:57:53.884Z,46.40
2019-04-07T10:00:44.300Z,47.10
2019-04-07T10:03:47.930Z,47.90
2019-04-07T10:06:39.334Z,47.60
2019-04-07T10:09:45.877Z,47.80
2019-04-07T10:12:39.233Z,47.60
2019-04-07T10:15:43.219Z,47.50
2019-04-07T10:18:46.755Z,47.40
2019-04-07T10:21:42.933Z,47.00
2019-04-07T10:24:30.413Z,46.80
2019-04-07T10:27:18.582Z,46.80
2019-04-07T10:30:13.655Z,47.10
2019-04-07T10:33:00.861Z,47.30
2019-04-07T10:36:04.906Z,47.70
2019-04-07T10:39:08.808Z,47.90
2019-04-07T10:42:02.527Z,48.00
2019-04-07T10:44:59.118Z,47.80
2019-04-07T10:47:48.682Z,47.30
2019-04-07T10:50:52.044Z,46.80
2019-04-07T10:53:56.270Z,46.50
2019-04-07T10:56:43.869Z,46.40
2019-04-07T10:59:42.814Z,46.70
2019-04-07T11:02:29.967Z,46.90
2019-04-07T11:05:36.222Z,46.70
2019-04-07T11:08:24.296Z,46.80
2019-04-07T11:11:18.056Z,46.80
2019-04-07T11:14:22.887Z,46.80
2019-04-07T11:17:19.398Z,47.10
2019-04-07T11:20:25.826Z,47.10
2019-04-07T11:23:15.606Z,47.30
2019-04-07T11:26:05.400Z,47.80
2019-04-07T11:28:52.551Z,47.50
2019-04-07T11:31:45.108Z,47.10
2019-04-07T11:34:41.432Z,47.20
2019-04-07T11:37:32.766Z,47.00
2019-04-07T11:40:41.934Z,47.10
2019-04-07T11:43:32.680Z,47.00
2019-04-07T11:46:36.536Z,47.30
2019-04-07T11:49:30.162Z,47.10
2019-04-07T11:52:23.578Z,46.70
2019-04-07T11:55:23.792Z,46.80
2019-04-07T11:58:17.752Z,46.80
2019-04-07T12:01:03.527Z,46.60
2019-04-07T12:03:53.451Z,46.80
2019-04-07T12:06:39.702Z,47.20
2019-04-07T12:09:41.944Z,47.10
2019-04-07T12:12:49.433Z,47.00
2019-04-07T12:15:42.960Z,47.10
2019-04-07T12:18:38.759Z,47.10
2019-04-07T12:21:41.068Z,46.90
2019-04-07T12:24:46.268Z,47.00
2019-04-07T12:27:33.448Z,47.00
2019-04-07T12:30:37.927Z,47.10
2019-04-07T12:33:42.106Z,46.70
2019-04-07T12:36:30.734Z,46.40
2019-04-07T12:39:34.178Z,46.40
2019-04-07T12:42:21.413Z,46.00
2019-04-07T12:45:20.011Z,46.00
2019-04-07T12:48:11.308Z,45.80
2019-04-07T12:51:07.376Z,45.60
2019-04-07T12:54:00.367Z,45.30
2019-04-07T12:56:47.798Z,45.60
2019-04-07T12:59:47.007Z,45.20
2019-04-07T13:02:40.317Z,45.20
2019-04-07T13:05:39.536Z,45.30
2019-04-07T13:08:43.630Z,44.10
2019-04-07T13:11:37.459Z,43.60
2019-04-07T13:14:26.951Z,43.30
2019-04-07T13:17:23.455Z,43.20
2019-04-07T13:20:10.810Z,43.30
2019-04-07T13:22:58.733Z,44.20
2019-04-07T13:25:54.443Z,44.50
2019-04-07T13:28:53.281Z,44.30
2019-04-07T13:31:40.617Z,43.80
2019-04-07T13:34:31.133Z,43.00
2019-04-07T13:37:25.351Z,42.40
2019-04-07T13:40:15.837Z,42.20
2019-04-07T13:43:12.303Z,42.00
2019-04-07T13:45:59.116Z,42.10
2019-04-07T13:48:49.537Z,42.40
2019-04-07T13:51:52.963Z,42.60
2019-04-07T13:54:56.947Z,43.20
2019-04-07T13:57:55.586Z,42.50
2019-04-07T14:00:57.350Z,41.90
2019-04-07T14:03:58.878Z,41.80
2019-04-07T14:06:46.747Z,41.10
2019-04-07T14:09:34.160Z,41.40
2019-04-07T14:12:34.505Z,41.40
2019-04-07T14:15:28.122Z,41.10
2019-04-07T14:18:27.730Z,40.80
2019-04-07T14:21:21.461Z,41.30
2019-04-07T14:24:23.896Z,41.30
2019-04-07T14:27:12.151Z,41.50
2019-04-07T14:30:19.142Z,41.80
2019-04-07T14:33:18.361Z,42.10
2019-04-07T14:36:06.291Z,42.40
2019-04-07T14:38:56.012Z,42.70
2019-04-07T14:42:04.790Z,42.60
2019-04-07T14:44:50.036Z,42.00
2019-04-07T14:47:37.089Z,40.30
2019-04-07T14:50:25.236Z,39.70
2019-04-07T14:53:25.369Z,39.40
2019-04-07T14:56:12.510Z,39.10
2019-04-07T14:59:06.580Z,39.70
2019-04-07T15:01:55.696Z,39.70
2019-04-07T15:04:49.554Z,38.70
2019-04-07T15:07:36.698Z,38.60
2019-04-07T15:10:24.435Z,38.80
2019-04-07T15:13:14.368Z,39.00
2019-04-07T15:16:00.368Z,39.50
2019-04-07T15:18:46.763Z,39.10
2019-04-07T15:21:32.820Z,38.90
2019-04-07T15:24:18.695Z,38.60
2019-04-07T15:27:05.903Z,38.20
2019-04-07T15:29:51.398Z,38.10
2019-04-07T15:32:36.401Z,38.10
2019-04-07T15:35:23.340Z,38.10
2019-04-07T15:38:08.803Z,38.10
2019-04-07T15:40:54.407Z,38.30
2019-04-07T15:43:40.056Z,38.40
2019-04-07T15:46:25.699Z,38.40
2019-04-07T15:49:12.697Z,38.50
2019-04-07T15:51:57.720Z,38.50
2019-04-07T15:54:43.405Z,38.60
2019-04-07T15:57:29.049Z,38.70
2019-04-07T16:00:15.292Z,38.60
2019-04-07T16:03:00.762Z,38.60
2019-04-07T16:05:46.501Z,38.80
2019-04-07T16:08:32.014Z,39.30
2019-04-07T16:11:19.018Z,39.80
2019-04-07T16:14:08.517Z,39.50
2019-04-07T16:16:52.802Z,40.00
2019-04-07T16:19:42.524Z,40.20
2019-04-07T16:22:25.692Z,40.30
2019-04-07T16:25:12.149Z,40.70
2019-04-07T16:27:59.117Z,41.10
2019-04-07T16:30:48.529Z,41.30
2019-04-07T16:33:33.982Z,41.60
2019-04-07T16:36:18.428Z,41.60
2019-04-07T16:39:09.086Z,41.60
2019-04-07T16:41:53.458Z,41.30
2019-04-07T16:44:42.552Z,41.40
2019-04-07T16:47:29.266Z,41.00
2019-04-07T16:50:13.301Z,41.00
2019-04-07T16:53:02.899Z,41.30
2019-04-07T16:55:48.893Z,41.30
2019-04-07T16:58:35.347Z,41.50
2019-04-07T17:01:18.836Z,41.80
2019-04-07T17:04:04.091Z,41.20
2019-04-07T17:06:59.243Z,40.90
2019-04-07T17:09:36.680Z,41.30
2019-04-07T17:12:21.663Z,41.10
2019-04-07T17:15:07.845Z,41.20
2019-04-07T17:17:54.659Z,41.50
2019-04-07T17:20:39.755Z,41.30
2019-04-07T17:23:26.121Z,41.40
2019-04-07T17:26:11.636Z,41.60
2019-04-07T17:28:58.238Z,41.60
2019-04-07T17:31:44.383Z,41.50
2019-04-07T17:34:29.456Z,41.50
2019-04-07T17:37:15.083Z,41.70
2019-04-07T17:40:11.335Z,41.70
2019-04-07T17:42:57.419Z,41.90
2019-04-07T17:46:02.500Z,42.00
2019-04-07T17:48:56.752Z,42.00
2019-04-07T17:51:56.315Z,42.50
2019-04-07T17:55:00.278Z,42.60
2019-04-07T17:57:56.472Z,42.70
2019-04-07T18:00:49.354Z,42.90
2019-04-07T18:03:50.815Z,43.90
2019-04-07T18:06:40.614Z,44.80
2019-04-07T18:09:30.988Z,45.60
2019-04-07T18:12:27.478Z,46.00
2019-04-07T18:15:31.575Z,46.80
2019-04-07T18:18:23.485Z,47.10
2019-04-07T18:21:13.300Z,47.40
2019-04-07T18:24:05.518Z,47.70
2019-04-07T18:27:12.570Z,48.10
2019-04-07T18:30:16.406Z,48.00
2019-04-07T18:33:19.286Z,48.30
2019-04-07T18:36:21.163Z,48.80
2019-04-07T18:39:26.011Z,48.90
2019-04-07T18:42:17.796Z,49.50
2019-04-07T18:45:12.168Z,49.20
2019-04-07T18:48:14.801Z,49.10
2019-04-07T18:51:02.936Z,48.60
2019-04-07T18:53:59.733Z,48.60
2019-04-07T18:57:03.963Z,48.40
2019-04-07T19:00:01.016Z,48.00
2019-04-07T19:02:46.114Z,48.00
2019-04-07T19:05:49.179Z,47.80
2019-04-07T19:08:39.189Z,47.80
2019-04-07T19:11:29.819Z,47.30
2019-04-07T19:14:40.135Z,47.40
2019-04-07T19:17:23.422Z,47.40
2019-04-07T19:20:26.378Z,47.30
2019-04-07T19:23:16.406Z,47.30
2019-04-07T19:26:18.548Z,47.10
2019-04-07T19:29:23.276Z,47.10
2019-04-07T19:32:13.464Z,46.90
2019-04-07T19:35:04.392Z,47.20
2019-04-07T19:38:08.451Z,46.90
2019-04-07T19:41:13.105Z,47.60
2019-04-07T19:44:17.990Z,47.10
2019-04-07T19:47:08.830Z,46.90
2019-04-07T19:50:12.578Z,46.90
2019-04-07T19:53:10.175Z,47.10
2019-04-07T19:55:56.488Z,47.00
2019-04-07T19:58:47.013Z,46.90
2019-04-07T20:01:44.343Z,47.00
2019-04-07T20:04:32.720Z,47.20
2019-04-07T20:07:37.958Z,47.30
2019-04-07T20:10:38.016Z,47.00
2019-04-07T20:13:25.017Z,47.20
2019-04-07T20:16:18.148Z,47.20
2019-04-07T20:19:22.307Z,47.40
2019-04-07T20:22:27.127Z,47.30
2019-04-07T20:25:17.531Z,47.70
2019-04-07T20:28:20.188Z,48.30
2019-04-07T20:31:08.239Z,48.80
2019-04-07T20:34:02.247Z,48.40
2019-04-07T20:37:05.107Z,48.80
2019-04-07T20:39:53.231Z,48.20
2019-04-07T20:42:40.246Z,47.70
2019-04-07T20:45:32.467Z,48.20
2019-04-07T20:48:19.499Z,50.10
2019-04-07T20:51:19.077Z,51.00
2019-04-07T20:54:23.526Z,50.10
2019-04-07T20:57:22.357Z,50.80
2019-04-07T21:00:08.426Z,50.60
2019-04-07T21:03:15.288Z,51.20
2019-04-07T21:05:54.318Z,51.40
2019-04-07T21:08:59.503Z,51.40
2019-04-07T21:11:56.712Z,51.60
2019-04-07T21:14:47.297Z,51.10
2019-04-07T21:17:50.236Z,51.50
2019-04-07T21:20:38.900Z,51.70
2019-04-07T21:23:30.065Z,51.40
2019-04-07T21:26:17.870Z,51.40
2019-04-07T21:29:10.555Z,51.20
2019-04-07T21:31:57.278Z,51.30
2019-04-07T21:35:03.089Z,51.50
2019-04-07T21:37:58.872Z,51.30
2019-04-07T21:41:01.899Z,51.70
2019-04-07T21:43:48.855Z,51.80
2019-04-07T21:46:52.056Z,51.90
2019-04-07T21:49:58.100Z,52.10
2019-04-07T21:52:53.142Z,51.80
2019-04-07T21:55:55.359Z,51.80
2019-04-07T21:58:52.011Z,51.90
2019-04-07T22:01:46.266Z,51.60
2019-04-07T22:04:36.244Z,51.20
2019-04-07T22:07:35.628Z,51.10
2019-04-07T22:10:22.914Z,51.30
2019-04-07T22:13:09.546Z,51.30
2019-04-07T22:15:59.292Z,51.30
2019-04-07T22:18:41.857Z,51.50
2019-04-07T22:21:27.743Z,51.40
2019-04-07T22:24:13.115Z,51.40
2019-04-07T22:26:59.285Z,51.60
2019-04-07T22:29:44.952Z,51.50
2019-04-07T22:32:30.973Z,51.10
2019-04-07T22:35:16.888Z,50.50
2019-04-07T22:38:03.162Z,50.80
2019-04-07T22:40:49.968Z,51.10
2019-04-07T22:43:35.539Z,51.20
2019-04-07T22:46:24.597Z,50.90
2019-04-07T22:49:07.163Z,50.90
2019-04-07T22:51:56.096Z,51.30
2019-04-07T22:54:42.232Z,51.40
2019-04-07T22:57:29.187Z,50.90
2019-04-07T23:00:16.950Z,51.00
2019-04-07T23:03:04.198Z,51.60
2019-04-07T23:05:49.760Z,51.90
2019-04-07T23:08:36.979Z,51.60
2019-04-07T23:11:22.515Z,51.70
2019-04-07T23:14:07.508Z,51.30
2019-04-07T23:16:52.342Z,51.30
2019-04-07T23:19:37.808Z,51.80
2019-04-07T23:22:22.865Z,52.10
2019-04-07T23:25:09.914Z,52.00
2019-04-07T23:27:54.823Z,52.10
2019-04-07T23:30:40.709Z,52.10
2019-04-07T23:33:26.192Z,52.00
2019-04-07T23:36:11.766Z,52.00
2019-04-07T23:38:57.967Z,52.20
2019-04-07T23:41:43.546Z,52.40
2019-04-07T23:44:29.681Z,52.50
2019-04-07T23:47:15.256Z,52.50
2019-04-07T23:50:00.743Z,52.60
2019-04-07T23:52:45.901Z,52.60
2019-04-07T23:55:31.631Z,52.70
2019-04-07T23:58:16.943Z,53.60
